Tanja Jacob — A8YR7 — position and weather

sailwx.info

Track history (hours):
 
Tides and Currents Weather Stations Pressure Air Temp Water Temp Dewpoint Dewpoint Depression Visibility Wind Speed Wind Dir Waves Ship Positions

Tanja Jacob

Last reported at 2015-Jun-24 14:24 UTC. Time now 2015-Jul-02 09:52 UTC.
Position N 34°02' W 030°41'.

Length 227 m; draft 11.3 m.

Type: Ship. MMSI: 636092217.

Date/timePositionNaut miles runAvg speedWind from/ knotsBaromVisibWave heightAir tempDewpointWater temp
2015-Jun-24 14:24N 34°02' W 030°41'1112.5
2015-Jun-24 13:33N 34°05' W 030°28'1212.4
2015-Jun-24 12:33N 34°09' W 030°14'1412.4
2015-Jun-24 11:27N 34°13' W 029°58'1112.2
2015-Jun-24 10:33N 34°15' W 029°45'1212.4
2015-Jun-24 09:33N 34°19' W 029°31'1212.5
2015-Jun-24 08:34N 34°22' W 029°16'1312.8
2015-Jun-24 07:33N 34°25' W 029°01'1312.9
2015-Jun-24 06:33N 34°28' W 028°46'1312.9
2015-Jun-24 05:33N 34°32' W 028°31'1313.1
2015-Jun-24 04:33N 34°35' W 028°16'1313.2
2015-Jun-24 03:33N 34°39' W 028°00'1313.2
2015-Jun-24 02:32N 34°42' W 027°45'1313.4
2015-Jun-24 01:34N 34°46' W 027°29'1413.8
2015-Jun-24 00:32N 34°49' W 027°13'1313.7
2015-Jun-23 23:34N 34°52' W 026°57'1613.4
2015-Jun-23 22:20N 34°56' W 026°37'1313.1
2015-Jun-23 21:22N 34°60' W 026°23'1113.2
2015-Jun-23 20:31N 35°03' W 026°09'1313.3
2015-Jun-23 19:33N 35°06' W 025°54'613.2
2015-Jun-23 19:05N 35°08' W 025°47'57413.1
2015-Jun-21 23:25N 36°45' W 014°08'1213.6
2015-Jun-21 22:33N 36°46' W 013°54'1313.4
2015-Jun-21 21:33N 36°48' W 013°37'1313.2
2015-Jun-21 20:34N 36°49' W 013°21'1313.5
2015-Jun-21 19:33N 36°51' W 013°04'1313.3
2015-Jun-21 18:33N 36°51' W 012°48'1313.1
2015-Jun-21 17:33N 36°49' W 012°31'1313.0
2015-Jun-21 16:33N 36°47' W 012°15'1413.1
2015-Jun-21 15:31N 36°45' W 011°58'1313.1
2015-Jun-21 14:33N 36°43' W 011°43'1313.0
2015-Jun-21 13:33N 36°42' W 011°27'1313.1
2015-Jun-21 12:34N 36°40' W 011°11'1513.5
2015-Jun-21 11:29N 36°37' W 010°53'1213.2
2015-Jun-21 10:34N 36°35' W 010°38'1313.3
2015-Jun-21 09:33N 36°32' W 010°22'1313.0
2015-Jun-21 08:33N 36°30' W 010°06'1313.0
2015-Jun-21 07:33N 36°28' W 009°50'1313.0
2015-Jun-21 06:33N 36°25' W 009°34'1313.1
2015-Jun-21 05:33N 36°23' W 009°18'1313.3
2015-Jun-21 04:33N 36°21' W 009°01'1313.3
2015-Jun-21 03:33N 36°18' W 008°45'1313.0
2015-Jun-21 02:33N 36°15' W 008°29'1312.9
2015-Jun-21 01:33N 36°13' W 008°14'1313.1
2015-Jun-21 00:33N 36°11' W 007°58'1313.2
2015-Jun-20 23:33N 36°08' W 007°42'1813.4
2015-Jun-20 22:12N 36°05' W 007°20'1113.5
2015-Jun-20 21:23N 36°03' W 007°06'1113.0
2015-Jun-20 20:33N 36°01' W 006°53'1313.1
2015-Jun-20 19:33N 35°59' W 006°37'1312.6
2015-Jun-20 18:30N 35°57' W 006°21'3612.1
2015-Jun-20 15:32N 35°57' W 005°36'1111.4
2015-Jun-20 14:33N 36°02' W 005°24'3 3.3
2015-Jun-20 13:32N 36°06' W 005°25'0 0.2
2015-Jun-20 12:31N 36°06' W 005°25'0 0.1
2015-Jun-20 11:31N 36°06' W 005°25'0 0.0
2015-Jun-20 10:28N 36°06' W 005°25'0 0.0
2015-Jun-20 09:33N 36°06' W 005°25'0 0.0
2015-Jun-20 08:33N 36°06' W 005°25'0 0.2
2015-Jun-20 07:32N 36°06' W 005°24'0 0.1
2015-Jun-20 05:31N 36°06' W 005°24'0 0.0
2015-Jun-20 04:19N 36°06' W 005°24'0 0.1
2015-Jun-20 03:31N 36°06' W 005°25'0 0.0
2015-Jun-20 02:34N 36°06' W 005°25'0 0.1
2015-Jun-20 01:33N 36°06' W 005°25'0 0.0
2015-Jun-20 00:31N 36°06' W 005°25'0 0.0
2015-Jun-19 23:28N 36°06' W 005°25'0 0.2
2015-Jun-19 22:31N 36°06' W 005°25'0 0.0
2015-Jun-19 21:33N 36°06' W 005°25'0 0.1
2015-Jun-19 20:33N 36°06' W 005°24'0 0.0
2015-Jun-19 19:17N 36°06' W 005°24'0 0.3
2015-Jun-19 18:32N 36°06' W 005°25'0 0.1
2015-Jun-19 17:10N 36°06' W 005°24'0 0.0
2015-Jun-19 16:31N 36°06' W 005°24'0 0.0
2015-Jun-19 15:08N 36°06' W 005°24'0 0.0
2015-Jun-19 14:27N 36°06' W 005°25'0 0.1
2015-Jun-19 13:33N 36°06' W 005°25'0 0.4
2015-Jun-19 12:33N 36°05' W 005°25'8 7.6
2015-Jun-19 11:33N 36°05' W 005°15'11212.4
2015-Jun-19 02:30N 36°20' W 002°57'1313.0
2015-Jun-19 01:30N 36°23' W 002°42'1212.6
2015-Jun-19 00:33N 36°24' W 002°27'1413.4
2015-Jun-18 23:32N 36°26' W 002°10'2913.1
2015-Jun-18 21:18N 36°31' W 001°34'1013.5
2015-Jun-18 20:33N 36°33' W 001°22'2713.4
2015-Jun-18 18:33N 36°37' W 000°49'4413.4
2015-Jun-18 15:16N 36°43' E 000°06'55812.7
2015-Jun-16 19:26N 37°11' E 011°44'1413.3
2015-Jun-16 18:23N 37°05' E 011°59'1113.0
2015-Jun-16 17:33N 36°60' E 012°11'1312.9
2015-Jun-16 16:33N 36°54' E 012°26'1312.9
2015-Jun-16 15:34N 36°49' E 012°40'1313.2
2015-Jun-16 14:34N 36°43' E 012°55'1313.2
2015-Jun-16 13:34N 36°38' E 013°10'1413.6
2015-Jun-16 12:33N 36°32' E 013°26'1313.5
2015-Jun-16 11:34N 36°26' E 013°41'1313.3
2015-Jun-16 10:33N 36°21' E 013°56'1313.1
2015-Jun-16 09:33N 36°15' E 014°10'1413.7
2015-Jun-16 08:34N 36°08' E 014°25'1413.9
2015-Jun-16 07:33N 36°01' E 014°40'9 9.1
2015-Jun-16 06:33N 35°57' E 014°50'1 0.5
2015-Jun-16 05:13N 35°56' E 014°49'0 0.0
2015-Jun-16 04:31N 35°56' E 014°49'0 0.0
2015-Jun-16 03:33N 35°56' E 014°49'0 0.0
2015-Jun-16 02:33N 35°56' E 014°49'0 0.0
2015-Jun-16 01:32N 35°56' E 014°49'0 0.1
2015-Jun-16 00:32N 35°56' E 014°49'0 0.0
2015-Jun-15 23:31N 35°56' E 014°49'0 0.0
2015-Jun-15 21:28N 35°56' E 014°49'0 0.0
2015-Jun-15 20:24N 35°56' E 014°49'0 0.1
2015-Jun-15 19:33N 35°56' E 014°49'0 0.1
2015-Jun-15 18:32N 35°56' E 014°49'0 0.0
2015-Jun-15 17:32N 35°56' E 014°49'0 0.0
2015-Jun-15 16:31N 35°57' E 014°49'0 0.0
2015-Jun-15 15:31N 35°56' E 014°49'0 0.0
2015-Jun-15 14:31N 35°57' E 014°49'0 0.0
2015-Jun-15 13:33N 35°56' E 014°49'0 0.0
2015-Jun-15 12:33N 35°56' E 014°49'0 0.0
2015-Jun-15 11:32N 35°56' E 014°49'0 0.0
2015-Jun-15 10:32N 35°56' E 014°49'0 0.0
2015-Jun-15 09:31N 35°56' E 014°49'0 0.0
2015-Jun-15 08:31N 35°56' E 014°49'0 0.0
2015-Jun-15 07:31N 35°56' E 014°49'0 0.0
2015-Jun-15 06:30N 35°56' E 014°49'0 0.0
2015-Jun-15 05:33N 35°56' E 014°49'0 0.0
2015-Jun-15 04:32N 35°56' E 014°49'0 0.0
2015-Jun-15 03:32N 35°56' E 014°49'0 0.0
2015-Jun-15 02:31N 35°56' E 014°49'0 0.1
2015-Jun-15 01:31N 35°56' E 014°49'0 0.1
2015-Jun-15 00:33N 35°56' E 014°49'0 0.1
2015-Jun-14 23:33N 35°57' E 014°49'0 0.1
2015-Jun-14 22:33N 35°56' E 014°49'0 0.0
2015-Jun-14 21:32N 35°56' E 014°49'0 0.0
2015-Jun-14 20:32N 35°57' E 014°49'0 0.0
2015-Jun-14 19:31N 35°57' E 014°49'0 0.0
2015-Jun-14 18:31N 35°57' E 014°49'0 0.0
2015-Jun-14 17:30N 35°57' E 014°49'0 0.0
2015-Jun-14 16:33N 35°57' E 014°49'0 0.0
2015-Jun-14 15:33N 35°57' E 014°49'0 0.0
2015-Jun-14 14:32N 35°57' E 014°49'  
Track history (hours):
 
Tides and Currents Weather Stations Pressure Air Temp Water Temp Dewpoint Dewpoint Depression Visibility Wind Speed Wind Dir Waves Ship Positions

Tanja Jacob

Last reported at 2015-Jun-24 14:24 UTC. Time now 2015-Jul-02 09:52 UTC.
Position N 34°02' W 030°41'.

Length 227 m; draft 11.3 m.

Type: Ship. MMSI: 636092217.

Date/timePositionNaut miles runAvg speedWind from/ knotsBaromVisibWave heightAir tempDewpointWater temp
2015-Jun-24 14:24N 34°02' W 030°41'1112.5
2015-Jun-24 13:33N 34°05' W 030°28'1212.4
2015-Jun-24 12:33N 34°09' W 030°14'1412.4
2015-Jun-24 11:27N 34°13' W 029°58'1112.2
2015-Jun-24 10:33N 34°15' W 029°45'1212.4
2015-Jun-24 09:33N 34°19' W 029°31'1212.5
2015-Jun-24 08:34N 34°22' W 029°16'1312.8
2015-Jun-24 07:33N 34°25' W 029°01'1312.9
2015-Jun-24 06:33N 34°28' W 028°46'1312.9
2015-Jun-24 05:33N 34°32' W 028°31'1313.1
2015-Jun-24 04:33N 34°35' W 028°16'1313.2
2015-Jun-24 03:33N 34°39' W 028°00'1313.2
2015-Jun-24 02:32N 34°42' W 027°45'1313.4
2015-Jun-24 01:34N 34°46' W 027°29'1413.8
2015-Jun-24 00:32N 34°49' W 027°13'1313.7
2015-Jun-23 23:34N 34°52' W 026°57'1613.4
2015-Jun-23 22:20N 34°56' W 026°37'1313.1
2015-Jun-23 21:22N 34°60' W 026°23'1113.2
2015-Jun-23 20:31N 35°03' W 026°09'1313.3
2015-Jun-23 19:33N 35°06' W 025°54'613.2
2015-Jun-23 19:05N 35°08' W 025°47'57413.1
2015-Jun-21 23:25N 36°45' W 014°08'1213.6
2015-Jun-21 22:33N 36°46' W 013°54'1313.4
2015-Jun-21 21:33N 36°48' W 013°37'1313.2
2015-Jun-21 20:34N 36°49' W 013°21'1313.5
2015-Jun-21 19:33N 36°51' W 013°04'1313.3
2015-Jun-21 18:33N 36°51' W 012°48'1313.1
2015-Jun-21 17:33N 36°49' W 012°31'1313.0
2015-Jun-21 16:33N 36°47' W 012°15'1413.1
2015-Jun-21 15:31N 36°45' W 011°58'1313.1
2015-Jun-21 14:33N 36°43' W 011°43'1313.0
2015-Jun-21 13:33N 36°42' W 011°27'1313.1
2015-Jun-21 12:34N 36°40' W 011°11'1513.5
2015-Jun-21 11:29N 36°37' W 010°53'1213.2
2015-Jun-21 10:34N 36°35' W 010°38'1313.3
2015-Jun-21 09:33N 36°32' W 010°22'1313.0
2015-Jun-21 08:33N 36°30' W 010°06'1313.0
2015-Jun-21 07:33N 36°28' W 009°50'1313.0
2015-Jun-21 06:33N 36°25' W 009°34'1313.1
2015-Jun-21 05:33N 36°23' W 009°18'1313.3
2015-Jun-21 04:33N 36°21' W 009°01'1313.3
2015-Jun-21 03:33N 36°18' W 008°45'1313.0
2015-Jun-21 02:33N 36°15' W 008°29'1312.9
2015-Jun-21 01:33N 36°13' W 008°14'1313.1
2015-Jun-21 00:33N 36°11' W 007°58'1313.2
2015-Jun-20 23:33N 36°08' W 007°42'1813.4
2015-Jun-20 22:12N 36°05' W 007°20'1113.5
2015-Jun-20 21:23N 36°03' W 007°06'1113.0
2015-Jun-20 20:33N 36°01' W 006°53'1313.1
2015-Jun-20 19:33N 35°59' W 006°37'1312.6
2015-Jun-20 18:30N 35°57' W 006°21'3612.1
2015-Jun-20 15:32N 35°57' W 005°36'1111.4
2015-Jun-20 14:33N 36°02' W 005°24'3 3.3
2015-Jun-20 13:32N 36°06' W 005°25'0 0.2
2015-Jun-20 12:31N 36°06' W 005°25'0 0.1
2015-Jun-20 11:31N 36°06' W 005°25'0 0.0
2015-Jun-20 10:28N 36°06' W 005°25'0 0.0
2015-Jun-20 09:33N 36°06' W 005°25'0 0.0
2015-Jun-20 08:33N 36°06' W 005°25'0 0.2
2015-Jun-20 07:32N 36°06' W 005°24'0 0.1
2015-Jun-20 05:31N 36°06' W 005°24'0 0.0
2015-Jun-20 04:19N 36°06' W 005°24'0 0.1
2015-Jun-20 03:31N 36°06' W 005°25'0 0.0
2015-Jun-20 02:34N 36°06' W 005°25'0 0.1
2015-Jun-20 01:33N 36°06' W 005°25'0 0.0
2015-Jun-20 00:31N 36°06' W 005°25'0 0.0
2015-Jun-19 23:28N 36°06' W 005°25'0 0.2
2015-Jun-19 22:31N 36°06' W 005°25'0 0.0
2015-Jun-19 21:33N 36°06' W 005°25'0 0.1
2015-Jun-19 20:33N 36°06' W 005°24'0 0.0
2015-Jun-19 19:17N 36°06' W 005°24'0 0.3
2015-Jun-19 18:32N 36°06' W 005°25'0 0.1
2015-Jun-19 17:10N 36°06' W 005°24'0 0.0
2015-Jun-19 16:31N 36°06' W 005°24'0 0.0
2015-Jun-19 15:08N 36°06' W 005°24'0 0.0
2015-Jun-19 14:27N 36°06' W 005°25'0 0.1
2015-Jun-19 13:33N 36°06' W 005°25'0 0.4
2015-Jun-19 12:33N 36°05' W 005°25'8 7.6
2015-Jun-19 11:33N 36°05' W 005°15'11212.4
2015-Jun-19 02:30N 36°20' W 002°57'1313.0
2015-Jun-19 01:30N 36°23' W 002°42'1212.6
2015-Jun-19 00:33N 36°24' W 002°27'1413.4
2015-Jun-18 23:32N 36°26' W 002°10'2913.1
2015-Jun-18 21:18N 36°31' W 001°34'1013.5
2015-Jun-18 20:33N 36°33' W 001°22'2713.4
2015-Jun-18 18:33N 36°37' W 000°49'4413.4
2015-Jun-18 15:16N 36°43' E 000°06'55812.7
2015-Jun-16 19:26N 37°11' E 011°44'1413.3
2015-Jun-16 18:23N 37°05' E 011°59'1113.0
2015-Jun-16 17:33N 36°60' E 012°11'1312.9
2015-Jun-16 16:33N 36°54' E 012°26'1312.9
2015-Jun-16 15:34N 36°49' E 012°40'1313.2
2015-Jun-16 14:34N 36°43' E 012°55'1313.2
2015-Jun-16 13:34N 36°38' E 013°10'1413.6
2015-Jun-16 12:33N 36°32' E 013°26'1313.5
2015-Jun-16 11:34N 36°26' E 013°41'1313.3
2015-Jun-16 10:33N 36°21' E 013°56'1313.1
2015-Jun-16 09:33N 36°15' E 014°10'1413.7
2015-Jun-16 08:34N 36°08' E 014°25'1413.9
2015-Jun-16 07:33N 36°01' E 014°40'9 9.1
2015-Jun-16 06:33N 35°57' E 014°50'1 0.5
2015-Jun-16 05:13N 35°56' E 014°49'0 0.0
2015-Jun-16 04:31N 35°56' E 014°49'0 0.0
2015-Jun-16 03:33N 35°56' E 014°49'0 0.0
2015-Jun-16 02:33N 35°56' E 014°49'0 0.0
2015-Jun-16 01:32N 35°56' E 014°49'0 0.1
2015-Jun-16 00:32N 35°56' E 014°49'0 0.0
2015-Jun-15 23:31N 35°56' E 014°49'0 0.0
2015-Jun-15 21:28N 35°56' E 014°49'0 0.0
2015-Jun-15 20:24N 35°56' E 014°49'0 0.1
2015-Jun-15 19:33N 35°56' E 014°49'0 0.1
2015-Jun-15 18:32N 35°56' E 014°49'0 0.0
2015-Jun-15 17:32N 35°56' E 014°49'0 0.0
2015-Jun-15 16:31N 35°57' E 014°49'0 0.0
2015-Jun-15 15:31N 35°56' E 014°49'0 0.0
2015-Jun-15 14:31N 35°57' E 014°49'0 0.0
2015-Jun-15 13:33N 35°56' E 014°49'0 0.0
2015-Jun-15 12:33N 35°56' E 014°49'0 0.0
2015-Jun-15 11:32N 35°56' E 014°49'0 0.0
2015-Jun-15 10:32N 35°56' E 014°49'0 0.0
2015-Jun-15 09:31N 35°56' E 014°49'0 0.0
2015-Jun-15 08:31N 35°56' E 014°49'0 0.0
2015-Jun-15 07:31N 35°56' E 014°49'0 0.0
2015-Jun-15 06:30N 35°56' E 014°49'0 0.0
2015-Jun-15 05:33N 35°56' E 014°49'0 0.0
2015-Jun-15 04:32N 35°56' E 014°49'0 0.0
2015-Jun-15 03:32N 35°56' E 014°49'0 0.0
2015-Jun-15 02:31N 35°56' E 014°49'0 0.1
2015-Jun-15 01:31N 35°56' E 014°49'0 0.1
2015-Jun-15 00:33N 35°56' E 014°49'0 0.1
2015-Jun-14 23:33N 35°57' E 014°49'0 0.1
2015-Jun-14 22:33N 35°56' E 014°49'0 0.0
2015-Jun-14 21:32N 35°56' E 014°49'0 0.0
2015-Jun-14 20:32N 35°57' E 014°49'0 0.0
2015-Jun-14 19:31N 35°57' E 014°49'0 0.0
2015-Jun-14 18:31N 35°57' E 014°49'0 0.0
2015-Jun-14 17:30N 35°57' E 014°49'0 0.0
2015-Jun-14 16:33N 35°57' E 014°49'0 0.0
2015-Jun-14 15:33N 35°57' E 014°49'0 0.0
2015-Jun-14 14:32N 35°57' E 014°49'  

Dump ship's entire track history